createdAt,value
2017-09-09T00:01:15.736Z,3.57
2017-09-09T00:03:43.524Z,3.40
2017-09-09T00:06:11.236Z,3.40
2017-09-09T00:08:38.809Z,3.23
2017-09-09T00:11:06.584Z,3.10
2017-09-09T00:13:34.115Z,3.00
2017-09-09T00:16:01.657Z,3.27
2017-09-09T00:18:29.184Z,3.60
2017-09-09T00:20:56.700Z,3.60
2017-09-09T00:23:24.244Z,3.00
2017-09-09T00:25:51.740Z,3.17
2017-09-09T00:28:19.566Z,3.10
2017-09-09T00:30:47.088Z,3.30
2017-09-09T00:33:14.581Z,2.90
2017-09-09T00:35:42.142Z,2.97
2017-09-09T00:38:09.647Z,3.20
2017-09-09T00:40:37.200Z,3.40
2017-09-09T00:43:04.691Z,2.97
2017-09-09T00:45:32.277Z,3.40
2017-09-09T00:48:00.100Z,3.63
2017-09-09T00:50:27.599Z,3.13
2017-09-09T00:52:55.167Z,2.90
2017-09-09T00:55:22.683Z,3.20
2017-09-09T00:57:50.193Z,3.13
2017-09-09T01:00:17.750Z,3.30
2017-09-09T01:02:45.237Z,2.83
2017-09-09T01:05:12.728Z,3.10
2017-09-09T01:07:40.270Z,3.00
2017-09-09T01:10:07.801Z,3.27
2017-09-09T01:12:35.534Z,2.83
2017-09-09T01:15:03.469Z,2.83
2017-09-09T01:17:30.979Z,2.70
2017-09-09T01:19:58.517Z,2.80
2017-09-09T01:22:26.076Z,3.33
2017-09-09T01:24:53.611Z,3.20
2017-09-09T01:27:21.379Z,2.90
2017-09-09T01:29:48.921Z,3.10
2017-09-09T01:32:16.423Z,3.00
2017-09-09T01:34:44.372Z,3.53
2017-09-09T01:37:11.876Z,3.17
2017-09-09T01:39:39.852Z,3.00
2017-09-09T01:42:07.381Z,2.50
2017-09-09T01:44:34.930Z,2.80
2017-09-09T01:47:02.431Z,2.67
2017-09-09T01:49:29.972Z,3.40
2017-09-09T01:51:57.608Z,3.13
2017-09-09T01:54:25.119Z,3.00
2017-09-09T01:56:52.841Z,3.70
2017-09-09T01:59:20.349Z,3.00
2017-09-09T02:01:47.879Z,3.70
2017-09-09T02:04:15.407Z,3.23
2017-09-09T02:06:43.256Z,3.17
2017-09-09T02:09:10.805Z,3.40
2017-09-09T02:11:38.494Z,3.40
2017-09-09T02:14:06.027Z,3.03
2017-09-09T02:16:33.547Z,3.03
2017-09-09T02:19:01.053Z,3.10
2017-09-09T02:21:28.677Z,3.07
2017-09-09T02:23:56.330Z,3.00
2017-09-09T02:26:23.848Z,2.70
2017-09-09T02:28:51.408Z,2.80
2017-09-09T02:31:19.396Z,3.20
2017-09-09T02:33:46.939Z,2.73
2017-09-09T02:36:14.598Z,3.60
2017-09-09T02:38:42.116Z,3.07
2017-09-09T02:41:09.643Z,3.03
2017-09-09T02:43:37.448Z,2.90
2017-09-09T02:46:04.947Z,3.13
2017-09-09T02:48:32.489Z,2.87
2017-09-09T02:51:00.036Z,3.00
2017-09-09T02:53:27.597Z,2.87
2017-09-09T02:55:55.105Z,3.40
2017-09-09T02:58:22.641Z,2.93
2017-09-09T03:00:50.335Z,3.00
2017-09-09T03:03:17.881Z,3.30
2017-09-09T03:05:45.381Z,2.90
2017-09-09T03:08:12.889Z,2.77
2017-09-09T03:10:40.441Z,3.33
2017-09-09T03:13:07.940Z,3.03
2017-09-09T03:15:35.432Z,2.70
2017-09-09T03:18:02.976Z,3.10
2017-09-09T03:20:30.516Z,3.07
2017-09-09T03:22:58.125Z,2.80
2017-09-09T03:25:25.648Z,2.60
2017-09-09T03:27:53.148Z,3.03
2017-09-09T03:30:20.679Z,2.80
2017-09-09T03:32:48.192Z,3.40
2017-09-09T03:35:16.424Z,2.93
2017-09-09T03:37:44.327Z,3.00
2017-09-09T03:40:11.856Z,2.77
2017-09-09T03:42:39.374Z,3.30
2017-09-09T03:45:06.872Z,2.83
2017-09-09T03:47:34.548Z,2.57
2017-09-09T03:50:02.301Z,3.20
2017-09-09T03:52:30.087Z,2.73
2017-09-09T03:54:57.827Z,2.70
2017-09-09T03:57:25.382Z,2.60
2017-09-09T03:59:53.051Z,2.70
2017-09-09T04:02:20.543Z,3.20
2017-09-09T04:04:48.413Z,2.70
2017-09-09T04:07:15.921Z,2.60
2017-09-09T04:09:43.452Z,3.00
2017-09-09T04:12:11.062Z,2.60
2017-09-09T04:14:38.647Z,2.70
2017-09-09T04:17:06.404Z,2.90
2017-09-09T04:19:33.932Z,3.00
2017-09-09T04:22:01.424Z,2.90
2017-09-09T04:24:28.932Z,3.03
2017-09-09T04:26:56.719Z,2.87
2017-09-09T04:29:24.251Z,2.40
2017-09-09T04:31:51.740Z,2.47
2017-09-09T04:34:19.245Z,2.80
2017-09-09T04:36:46.761Z,2.83
2017-09-09T04:39:14.335Z,3.00
2017-09-09T04:41:41.866Z,2.60
2017-09-09T04:44:09.368Z,3.03
2017-09-09T04:46:37.035Z,3.07
2017-09-09T04:49:04.536Z,2.70
2017-09-09T04:51:32.257Z,3.27
2017-09-09T04:53:59.788Z,2.53
2017-09-09T04:56:27.304Z,2.60
2017-09-09T04:58:55.004Z,2.73
2017-09-09T05:01:22.489Z,3.10
2017-09-09T05:03:50.043Z,2.97
2017-09-09T05:06:17.565Z,3.07
2017-09-09T05:08:45.070Z,2.33
2017-09-09T05:11:12.612Z,2.70
2017-09-09T05:13:40.148Z,2.83
2017-09-09T05:16:08.152Z,2.90
2017-09-09T05:18:36.409Z,2.87
2017-09-09T05:21:04.433Z,2.17
2017-09-09T05:23:31.940Z,2.37
2017-09-09T05:25:59.457Z,2.70
2017-09-09T05:28:26.948Z,3.10
2017-09-09T05:30:54.494Z,2.30
2017-09-09T05:33:21.990Z,2.73
2017-09-09T05:35:49.502Z,3.20
2017-09-09T05:38:17.246Z,3.00
2017-09-09T05:40:44.790Z,2.43
2017-09-09T05:43:12.357Z,2.40
2017-09-09T05:45:39.863Z,2.43
2017-09-09T05:48:07.374Z,2.70
2017-09-09T05:50:34.929Z,2.60
2017-09-09T05:53:02.422Z,2.67
2017-09-09T05:55:29.937Z,2.53
2017-09-09T05:57:57.468Z,3.10
2017-09-09T06:00:24.975Z,2.43
2017-09-09T06:02:52.470Z,2.93
2017-09-09T06:05:20.007Z,2.70
2017-09-09T06:07:47.500Z,2.50
2017-09-09T06:10:15.008Z,2.10
2017-09-09T06:12:42.726Z,2.30
2017-09-09T06:15:11.048Z,2.80
2017-09-09T06:17:38.601Z,2.50
2017-09-09T06:20:06.088Z,2.07
2017-09-09T06:22:33.659Z,2.90
2017-09-09T06:25:01.589Z,2.30
2017-09-09T06:27:29.249Z,2.37
2017-09-09T06:29:56.777Z,2.70
2017-09-09T06:32:24.271Z,2.30
2017-09-09T06:34:51.827Z,2.10
2017-09-09T06:37:19.485Z,2.80
2017-09-09T06:39:47.069Z,2.87
2017-09-09T06:42:14.598Z,2.23
2017-09-09T06:44:42.121Z,2.60
2017-09-09T06:47:09.752Z,3.03
2017-09-09T06:49:37.236Z,2.40
2017-09-09T06:52:04.764Z,2.27
2017-09-09T06:54:32.612Z,2.50
2017-09-09T06:57:00.139Z,3.00
2017-09-09T06:59:27.672Z,2.40
2017-09-09T07:01:55.285Z,2.40
2017-09-09T07:04:23.097Z,2.70
2017-09-09T07:06:50.615Z,2.40
2017-09-09T07:09:18.115Z,2.37
2017-09-09T07:11:46.112Z,2.23
2017-09-09T07:14:13.705Z,2.57
2017-09-09T07:16:41.204Z,2.40
2017-09-09T07:19:08.711Z,2.70
2017-09-09T07:21:36.475Z,2.43
2017-09-09T07:24:04.190Z,2.50
2017-09-09T07:26:31.696Z,2.50
2017-09-09T07:28:59.256Z,2.60
2017-09-09T07:31:26.785Z,2.20
2017-09-09T07:33:54.309Z,1.97
2017-09-09T07:36:22.140Z,2.63
2017-09-09T07:38:49.699Z,2.47
2017-09-09T07:41:17.219Z,2.70
2017-09-09T07:43:44.818Z,2.70
2017-09-09T07:46:12.439Z,2.90
2017-09-09T07:48:40.213Z,2.80
2017-09-09T07:51:07.711Z,2.70
2017-09-09T07:53:35.230Z,2.90
2017-09-09T07:56:02.728Z,2.00
2017-09-09T07:58:30.253Z,3.00
2017-09-09T08:00:57.760Z,2.60
2017-09-09T08:03:25.260Z,2.73
2017-09-09T08:05:52.830Z,2.30
2017-09-09T08:08:20.376Z,2.90
2017-09-09T08:10:47.887Z,2.80
2017-09-09T08:13:15.425Z,2.43
2017-09-09T08:15:42.943Z,2.43
2017-09-09T08:18:10.504Z,2.70
2017-09-09T08:20:38.515Z,2.73
2017-09-09T08:23:06.008Z,2.40
2017-09-09T08:25:34.014Z,2.70
2017-09-09T08:28:01.522Z,2.40
2017-09-09T08:30:29.068Z,2.10
2017-09-09T08:32:56.616Z,2.30
2017-09-09T08:35:24.154Z,2.17
2017-09-09T08:37:51.697Z,3.30
2017-09-09T08:40:19.220Z,1.93
2017-09-09T08:42:46.788Z,2.40
2017-09-09T08:45:14.316Z,2.53
2017-09-09T08:47:41.853Z,2.63
2017-09-09T08:50:09.621Z,2.70
2017-09-09T08:52:37.185Z,2.23
2017-09-09T08:55:04.720Z,2.70
2017-09-09T08:57:32.300Z,2.53
2017-09-09T08:59:59.942Z,2.53
2017-09-09T09:02:27.451Z,2.60
2017-09-09T09:04:55.001Z,2.37
2017-09-09T09:07:22.654Z,2.20
2017-09-09T09:09:50.266Z,2.70
2017-09-09T09:12:17.789Z,2.50
2017-09-09T09:14:46.101Z,2.10
2017-09-09T09:17:13.719Z,2.20
2017-09-09T09:19:41.276Z,2.07
2017-09-09T09:22:08.805Z,2.43
2017-09-09T09:24:36.300Z,1.87
2017-09-09T09:27:03.832Z,2.47
2017-09-09T09:29:31.588Z,2.80
2017-09-09T09:31:59.384Z,2.00
2017-09-09T09:34:27.063Z,2.33
2017-09-09T09:36:54.621Z,2.20
2017-09-09T09:39:22.143Z,2.33
2017-09-09T09:41:49.634Z,2.10
2017-09-09T09:44:17.225Z,2.33
2017-09-09T09:46:44.731Z,1.87
2017-09-09T09:49:12.248Z,2.40
2017-09-09T09:51:39.784Z,2.43
2017-09-09T09:54:07.300Z,2.20
2017-09-09T09:56:34.837Z,2.90
2017-09-09T09:59:02.382Z,2.53
2017-09-09T10:01:29.900Z,2.70
2017-09-09T10:03:57.385Z,2.20
2017-09-09T10:06:24.920Z,2.17
2017-09-09T10:08:52.448Z,2.50
2017-09-09T10:11:20.077Z,2.30
2017-09-09T10:13:47.639Z,2.87
2017-09-09T10:16:15.149Z,2.50
2017-09-09T10:18:42.656Z,2.37
2017-09-09T10:21:10.287Z,2.83
2017-09-09T10:23:37.818Z,2.47
2017-09-09T10:26:05.321Z,2.17
2017-09-09T10:28:32.861Z,2.83
2017-09-09T10:31:00.363Z,3.00
2017-09-09T10:33:27.853Z,2.67
2017-09-09T10:35:55.499Z,2.00
2017-09-09T10:38:23.003Z,2.00
2017-09-09T10:40:50.541Z,2.60
2017-09-09T10:43:18.084Z,1.97
2017-09-09T10:45:45.608Z,2.80
2017-09-09T10:48:13.140Z,2.63
2017-09-09T10:50:40.643Z,2.53
2017-09-09T10:53:08.177Z,2.80
2017-09-09T10:55:34.447Z,2.27
2017-09-09T10:58:00.712Z,2.57
2017-09-09T11:00:27.010Z,2.50
2017-09-09T11:02:53.300Z,2.30
2017-09-09T11:05:19.615Z,2.50
2017-09-09T11:07:45.880Z,2.50
2017-09-09T11:10:12.217Z,2.23
2017-09-09T11:12:38.924Z,2.30
2017-09-09T11:15:05.260Z,2.10
2017-09-09T11:17:31.548Z,2.83
2017-09-09T11:19:57.890Z,2.23
2017-09-09T11:22:24.309Z,2.43
2017-09-09T11:24:50.688Z,2.30
2017-09-09T11:27:16.973Z,2.53
2017-09-09T11:29:43.291Z,2.13
2017-09-09T11:32:09.584Z,2.40
2017-09-09T11:34:35.883Z,2.67
2017-09-09T11:37:02.227Z,2.63
2017-09-09T11:39:28.547Z,2.43
2017-09-09T11:41:54.853Z,2.40
2017-09-09T11:44:21.133Z,2.27
2017-09-09T11:46:47.432Z,2.47
2017-09-09T11:49:13.724Z,2.53
2017-09-09T11:51:40.072Z,2.23
2017-09-09T11:54:06.336Z,2.80
2017-09-09T11:56:32.612Z,2.27
2017-09-09T11:58:58.891Z,2.40
2017-09-09T12:01:25.186Z,2.60
2017-09-09T12:03:51.484Z,2.00
2017-09-09T12:06:17.841Z,2.37
2017-09-09T12:08:44.128Z,2.30
2017-09-09T12:11:10.438Z,2.20
2017-09-09T12:13:36.769Z,3.10
2017-09-09T12:16:03.064Z,2.50
2017-09-09T12:18:29.379Z,2.07
2017-09-09T12:20:55.644Z,1.87
2017-09-09T12:23:22.164Z,1.90
2017-09-09T12:25:48.787Z,1.93
2017-09-09T12:28:15.078Z,1.77
2017-09-09T12:30:41.396Z,1.90
2017-09-09T12:33:07.814Z,1.80
2017-09-09T12:35:34.097Z,1.80
2017-09-09T12:38:00.364Z,1.57
2017-09-09T12:40:34.703Z,1.70
2017-09-09T12:43:01.030Z,2.00
2017-09-09T12:45:27.314Z,1.87
2017-09-09T12:47:53.620Z,1.70
2017-09-09T12:50:19.941Z,1.63
2017-09-09T12:52:47.161Z,1.10
2017-09-09T12:55:13.453Z,1.70
2017-09-09T12:57:39.780Z,2.17
2017-09-09T13:00:06.120Z,1.80
2017-09-09T13:02:32.446Z,1.63
2017-09-09T13:04:58.808Z,1.57
2017-09-09T13:07:25.072Z,2.30
2017-09-09T13:09:51.482Z,1.70
2017-09-09T13:12:17.818Z,1.53
2017-09-09T13:14:44.162Z,1.63
2017-09-09T13:17:17.449Z,2.80
2017-09-09T13:19:43.741Z,1.97
2017-09-09T13:22:10.068Z,2.00
2017-09-09T13:24:36.352Z,2.10
2017-09-09T13:27:02.652Z,1.80
2017-09-09T13:29:28.976Z,2.30
2017-09-09T13:31:55.307Z,2.60
2017-09-09T13:34:21.588Z,2.80
2017-09-09T13:36:47.937Z,2.50
2017-09-09T13:39:14.243Z,1.90
2017-09-09T13:41:40.609Z,2.40
2017-09-09T13:44:06.881Z,2.20
2017-09-09T13:46:33.185Z,1.80
2017-09-09T13:48:59.505Z,2.10
2017-09-09T13:51:25.825Z,2.23
2017-09-09T13:53:52.173Z,2.73
2017-09-09T13:56:18.441Z,3.07
2017-09-09T13:58:44.697Z,2.47
2017-09-09T14:01:10.997Z,2.40
2017-09-09T14:03:37.340Z,2.27
2017-09-09T14:06:04.405Z,3.20
2017-09-09T14:08:30.729Z,2.53
2017-09-09T14:10:57.074Z,2.47
2017-09-09T14:13:23.371Z,2.07
2017-09-09T14:15:49.720Z,2.03
2017-09-09T14:18:16.005Z,2.60
2017-09-09T14:20:42.387Z,2.30
2017-09-09T14:23:08.823Z,2.27
2017-09-09T14:25:35.188Z,2.60
2017-09-09T14:28:01.612Z,2.00
2017-09-09T14:30:27.892Z,2.30
2017-09-09T14:32:54.210Z,2.10
2017-09-09T14:35:20.791Z,2.40
2017-09-09T14:37:47.125Z,2.03
2017-09-09T14:40:13.449Z,2.17
2017-09-09T14:42:39.744Z,2.30
2017-09-09T14:45:06.969Z,2.77
2017-09-09T14:47:33.281Z,2.00
2017-09-09T14:49:59.600Z,2.03
2017-09-09T14:52:25.913Z,2.87
2017-09-09T14:54:52.252Z,2.40
2017-09-09T14:57:18.564Z,2.03
2017-09-09T14:59:44.955Z,2.20
2017-09-09T15:02:11.261Z,2.57
2017-09-09T15:04:37.524Z,3.20
2017-09-09T15:07:03.855Z,2.30
2017-09-09T15:09:30.201Z,2.40
2017-09-09T15:11:56.496Z,2.70
2017-09-09T15:14:22.757Z,2.20
2017-09-09T15:16:49.096Z,2.30
2017-09-09T15:19:15.393Z,2.30
2017-09-09T15:21:41.734Z,1.87
2017-09-09T15:24:08.058Z,2.00
2017-09-09T15:26:34.323Z,2.30
2017-09-09T15:29:01.484Z,1.80
2017-09-09T15:31:27.764Z,2.67
2017-09-09T15:33:54.388Z,2.50
2017-09-09T15:36:21.717Z,2.00
2017-09-09T15:38:54.956Z,2.27
2017-09-09T15:41:21.276Z,2.17
2017-09-09T15:43:47.619Z,1.83
2017-09-09T15:46:14.005Z,2.47
2017-09-09T15:48:40.316Z,2.10
2017-09-09T15:51:06.613Z,2.30
2017-09-09T15:53:32.911Z,2.33
2017-09-09T15:55:59.162Z,1.63
2017-09-09T15:58:25.484Z,2.00
2017-09-09T16:00:51.806Z,2.47
2017-09-09T16:03:18.108Z,2.43
2017-09-09T16:05:44.460Z,1.83
2017-09-09T16:08:10.755Z,2.47
2017-09-09T16:10:37.062Z,2.23
2017-09-09T16:13:03.332Z,2.17
2017-09-09T16:15:29.654Z,2.20
2017-09-09T16:17:55.956Z,1.77
2017-09-09T16:20:22.285Z,2.13
2017-09-09T16:22:48.598Z,2.40
2017-09-09T16:25:14.908Z,1.70
2017-09-09T16:27:41.235Z,2.40
2017-09-09T16:30:08.289Z,2.23
2017-09-09T16:32:34.578Z,2.27
2017-09-09T16:35:00.849Z,2.30
2017-09-09T16:37:27.149Z,2.23
2017-09-09T16:39:53.488Z,2.00
2017-09-09T16:42:19.797Z,2.33
2017-09-09T16:44:46.053Z,2.03
2017-09-09T16:47:12.357Z,2.00
2017-09-09T16:49:39.444Z,1.70
2017-09-09T16:52:06.496Z,2.40
2017-09-09T16:54:33.052Z,2.37
2017-09-09T16:56:59.360Z,1.90
2017-09-09T16:59:25.696Z,2.17
2017-09-09T17:01:51.968Z,1.57
2017-09-09T17:04:18.276Z,1.70
2017-09-09T17:06:44.556Z,2.03
2017-09-09T17:09:10.828Z,1.80
2017-09-09T17:11:37.135Z,1.50
2017-09-09T17:14:03.475Z,1.60
2017-09-09T17:16:29.796Z,2.10
2017-09-09T17:18:56.064Z,2.40
2017-09-09T17:21:22.343Z,2.00
2017-09-09T17:23:48.641Z,2.00
2017-09-09T17:26:14.963Z,1.80
2017-09-09T17:28:41.252Z,2.00
2017-09-09T17:31:07.567Z,2.27
2017-09-09T17:33:33.879Z,2.10
2017-09-09T17:36:00.145Z,1.90
2017-09-09T17:38:26.401Z,1.77
2017-09-09T17:40:52.715Z,1.80
2017-09-09T17:43:18.976Z,1.83
2017-09-09T17:45:45.261Z,2.00
2017-09-09T17:48:11.565Z,1.70
2017-09-09T17:50:37.848Z,2.10
2017-09-09T17:53:04.145Z,1.20
2017-09-09T17:55:30.419Z,1.40
2017-09-09T17:57:56.717Z,1.93
2017-09-09T18:00:23.120Z,1.40
2017-09-09T18:02:49.380Z,1.33
2017-09-09T18:05:16.474Z,1.60
2017-09-09T18:07:42.748Z,1.60
2017-09-09T18:10:09.036Z,2.03
2017-09-09T18:12:35.327Z,2.03
2017-09-09T18:15:01.593Z,1.87
2017-09-09T18:17:27.971Z,1.40
2017-09-09T18:19:54.296Z,1.93
2017-09-09T18:22:20.573Z,1.97
2017-09-09T18:24:47.773Z,1.90
2017-09-09T18:27:14.032Z,1.80
2017-09-09T18:29:40.319Z,1.83
2017-09-09T18:32:06.653Z,1.60
2017-09-09T18:34:32.965Z,1.73
2017-09-09T18:36:59.229Z,1.40
2017-09-09T18:39:25.535Z,1.30
2017-09-09T18:41:51.815Z,1.63
2017-09-09T18:44:18.111Z,1.63
2017-09-09T18:46:44.388Z,1.40
2017-09-09T18:49:10.652Z,1.77
2017-09-09T18:51:36.964Z,1.70
2017-09-09T18:54:03.264Z,1.80
2017-09-09T18:56:29.524Z,1.83
2017-09-09T18:58:55.837Z,1.90
2017-09-09T19:01:22.141Z,1.77
2017-09-09T19:03:48.452Z,1.30
2017-09-09T19:06:14.712Z,1.70
2017-09-09T19:08:41.003Z,1.70
2017-09-09T19:11:07.351Z,1.73
2017-09-09T19:13:33.651Z,1.70
2017-09-09T19:15:59.953Z,1.60
2017-09-09T19:18:26.220Z,1.60
2017-09-09T19:20:52.508Z,1.83
2017-09-09T19:23:18.825Z,1.50
2017-09-09T19:25:45.124Z,1.70
2017-09-09T19:28:12.184Z,1.60
2017-09-09T19:30:38.500Z,1.40
2017-09-09T19:33:04.865Z,1.80
2017-09-09T19:35:31.122Z,2.00
2017-09-09T19:37:57.468Z,1.50
2017-09-09T19:40:23.734Z,1.70
2017-09-09T19:42:50.039Z,1.40
2017-09-09T19:45:16.360Z,1.90
2017-09-09T19:47:42.638Z,1.70
2017-09-09T19:50:08.935Z,1.63
2017-09-09T19:52:35.948Z,1.60
2017-09-09T19:55:02.290Z,1.50
2017-09-09T19:57:28.624Z,1.70
2017-09-09T19:59:54.893Z,1.63
2017-09-09T20:02:21.211Z,1.93
2017-09-09T20:04:47.552Z,1.60
2017-09-09T20:07:13.812Z,1.93
2017-09-09T20:09:40.073Z,1.70
2017-09-09T20:12:06.424Z,1.50
2017-09-09T20:14:32.744Z,1.23
2017-09-09T20:16:58.996Z,1.30
2017-09-09T20:19:25.349Z,1.60
2017-09-09T20:21:51.684Z,1.70
2017-09-09T20:24:18.024Z,1.53
2017-09-09T20:26:44.355Z,1.60
2017-09-09T20:29:10.699Z,1.60
2017-09-09T20:31:36.966Z,1.30
2017-09-09T20:34:03.245Z,1.47
2017-09-09T20:36:29.559Z,1.53
2017-09-09T20:38:55.808Z,1.40
2017-09-09T20:41:22.112Z,1.30
2017-09-09T20:43:48.404Z,1.40
2017-09-09T20:46:14.712Z,1.50
2017-09-09T20:48:41.006Z,1.37
2017-09-09T20:51:07.404Z,1.50
2017-09-09T20:53:33.717Z,1.20
2017-09-09T20:56:00.015Z,1.23
2017-09-09T20:58:26.368Z,1.20
2017-09-09T21:00:52.636Z,1.07
2017-09-09T21:03:18.910Z,1.20
2017-09-09T21:05:45.387Z,1.70
2017-09-09T21:08:11.649Z,1.40
2017-09-09T21:10:37.946Z,1.50
2017-09-09T21:13:04.875Z,1.40
2017-09-09T21:15:31.275Z,1.40
2017-09-09T21:17:57.649Z,1.63
2017-09-09T21:20:23.952Z,1.70
2017-09-09T21:22:50.283Z,1.30
2017-09-09T21:25:16.964Z,1.20
2017-09-09T21:27:43.248Z,1.20
2017-09-09T21:30:09.575Z,1.50
2017-09-09T21:32:35.868Z,1.40
2017-09-09T21:35:02.135Z,1.40
2017-09-09T21:37:29.247Z,1.53
2017-09-09T21:39:55.546Z,1.40
2017-09-09T21:42:21.888Z,1.00
2017-09-09T21:44:48.148Z,1.40
2017-09-09T21:47:15.131Z,1.33
2017-09-09T21:49:41.453Z,1.67
2017-09-09T21:52:07.752Z,1.27
2017-09-09T21:54:34.084Z,1.43
2017-09-09T21:57:00.401Z,1.57
2017-09-09T21:59:26.682Z,1.30
2017-09-09T22:01:53.808Z,1.50
2017-09-09T22:04:20.077Z,1.10
2017-09-09T22:06:46.387Z,1.40
2017-09-09T22:09:12.724Z,1.00
2017-09-09T22:11:39.836Z,0.97
2017-09-09T22:14:06.140Z,1.37
2017-09-09T22:16:32.476Z,1.50
2017-09-09T22:18:58.773Z,1.07
2017-09-09T22:21:25.065Z,1.20
2017-09-09T22:23:51.370Z,1.40
2017-09-09T22:26:17.669Z,1.40
2017-09-09T22:28:44.012Z,1.20
2017-09-09T22:31:10.285Z,1.13
2017-09-09T22:33:36.635Z,1.20
2017-09-09T22:36:02.913Z,1.40
2017-09-09T22:38:29.192Z,1.10
2017-09-09T22:40:55.506Z,1.50
2017-09-09T22:43:21.791Z,1.00
2017-09-09T22:45:48.136Z,1.33
2017-09-09T22:48:14.460Z,1.30
2017-09-09T22:50:41.160Z,1.10
2017-09-09T22:53:07.473Z,1.20
2017-09-09T22:55:33.789Z,1.20
2017-09-09T22:58:00.113Z,1.30
2017-09-09T23:00:26.395Z,1.30
2017-09-09T23:02:52.672Z,1.10
2017-09-09T23:05:19.051Z,1.27
2017-09-09T23:07:45.499Z,0.97
2017-09-09T23:10:11.781Z,1.27
2017-09-09T23:12:38.061Z,0.90
2017-09-09T23:15:04.360Z,1.10
2017-09-09T23:17:30.686Z,1.40
2017-09-09T23:19:57.000Z,1.23
2017-09-09T23:22:23.425Z,1.03
2017-09-09T23:24:49.684Z,1.27
2017-09-09T23:27:16.092Z,1.10
2017-09-09T23:29:42.435Z,1.63
2017-09-09T23:32:08.805Z,1.33
2017-09-09T23:34:35.155Z,0.97
2017-09-09T23:37:01.472Z,1.07
2017-09-09T23:39:27.824Z,1.40
2017-09-09T23:41:54.127Z,1.10
2017-09-09T23:44:20.448Z,1.03
2017-09-09T23:46:46.753Z,1.23
2017-09-09T23:49:13.044Z,0.90
2017-09-09T23:51:39.328Z,0.93
2017-09-09T23:54:05.634Z,1.40
2017-09-09T23:56:31.941Z,1.10
2017-09-09T23:58:58.208Z,1.20
